LFPM 030500Z AUTO 30005KT 5000 BR FEW005 SCT044 OVC066 05/05 Q0998

Les locaux du Club
   
  L'Entrée du club Batiment 50  
   
  L'accueil et la zone opérations  
   
  La zone opérations  
   
  La zone Briefing  
   
  Le Club House  
   
  La parking avions et le hangard  
 

Liens externes